Time;durP1;ratioP1;P1;durP2;ratioP2;P2;SDS_P1;SDS_P2;PMS_P1;PMS_P2;Temp;Humidity;BMP_temperature;BMP_pressure;BME280_temperature;BME280_humidity;BME280_pressure;Samples;Min_cycle;Max_cycle;Signal;HPM_P1;HPM_P2
2021/01/07 00:00:02;;;;;;;;;;;1.50;99.90;;;;;;5119304;28;19978;-90
2021/01/07 00:02:34;;;;;;;;;;;1.50;99.90;;;;;;5116209;28;19911;-90
2021/01/07 00:05:03;;;;;;;;;;;1.50;99.90;;;;;;5110955;28;19911;-90
2021/01/07 00:07:34;;;;;;;;;;;1.50;99.90;;;;;;5108934;28;19908;-89
2021/01/07 00:10:10;;;;;;;;;;;1.50;99.90;;;;;;5118859;28;19914;-90
2021/01/07 00:12:44;;;;;;;;;;;1.50;99.90;;;;;;5118344;28;19916;-90
2021/01/07 00:15:14;;;;;;;;;;;1.50;99.90;;;;;;5117925;28;19937;-90
2021/01/07 00:17:39;;;;;;;;;;;1.50;99.90;;;;;;5115246;28;20011;-90
2021/01/07 00:20:10;;;;;;;;;;;1.40;99.90;;;;;;5117704;28;19948;-88
2021/01/07 00:22:38;;;;;;;;;;;1.40;99.90;;;;;;5118093;28;20005;-89
2021/01/07 00:25:09;;;;;;;;;;;1.40;99.90;;;;;;5111191;28;19907;-90
2021/01/07 00:27:41;;;;;;;;;;;1.40;99.90;;;;;;5116922;28;19920;-90
2021/01/07 00:30:11;;;;;;;;;;;1.30;99.90;;;;;;5119525;28;20383;-90
2021/01/07 00:32:56;;;;;;;;;;;1.30;99.90;;;;;;5120975;28;19952;-89
2021/01/07 00:35:30;;;;;;;;;;;1.20;99.90;;;;;;5117716;28;19931;-89
2021/01/07 00:38:15;;;;;;;;;;;1.20;99.90;;;;;;5118441;28;20036;-89
2021/01/07 00:40:52;;;;;;;;;;;1.10;99.90;;;;;;5114499;28;19918;-88
2021/01/07 00:43:34;;;;;;;;;;;1.10;99.90;;;;;;5112326;28;19919;-89
2021/01/07 00:46:13;;;;;;;;;;;1.10;99.90;;;;;;5117650;28;19958;-88
2021/01/07 00:48:41;;;;;;;;;;;1.10;99.90;;;;;;5113615;28;19969;-89
2021/01/07 00:51:14;;;;;;;;;;;1.00;99.90;;;;;;5117473;28;19930;-88
2021/01/07 00:53:51;;;;;;;;;;;1.00;99.90;;;;;;5115389;28;19922;-88
2021/01/07 00:56:33;;;;;;;;;;;1.00;99.90;;;;;;5108215;28;19915;-88
2021/01/07 00:59:02;;;;;;;;;;;1.00;99.90;;;;;;5113561;28;19907;-88
2021/01/07 01:01:34;;;;;;;;;;;1.10;99.90;;;;;;5117227;28;20272;-88
2021/01/07 01:04:07;;;;;;;;;;;1.20;99.90;;;;;;5117273;28;20006;-89
2021/01/07 01:06:36;;;;;;;;;;;1.20;99.90;;;;;;5109594;28;19914;-89
2021/01/07 01:09:22;;;;;;;;;;;1.30;99.90;;;;;;5116144;28;19915;-88
2021/01/07 01:11:53;;;;;;;;;;;1.30;99.90;;;;;;5116597;28;19908;-89
2021/01/07 01:14:22;;;;;;;;;;;1.40;99.90;;;;;;5116980;28;19916;-88
2021/01/07 01:16:51;;;;;;;;;;;1.40;99.90;;;;;;5108713;28;19908;-88
2021/01/07 01:19:37;;;;;;;;;;;1.50;99.90;;;;;;5117697;28;19975;-89
2021/01/07 01:22:05;;;;;;;;;;;1.50;99.90;;;;;;5114249;28;19915;-88
2021/01/07 01:24:34;;;;;;;;;;;1.50;99.90;;;;;;5116449;28;19912;-89
2021/01/07 01:27:11;;;;;;;;;;;1.60;99.90;;;;;;5116105;28;21794;-89
2021/01/07 01:29:36;;;;;;;;;;;1.60;99.90;;;;;;5114453;28;19923;-88
2021/01/07 01:32:08;;;;;;;;;;;1.60;99.90;;;;;;5116865;28;20006;-89
2021/01/07 01:34:37;;;;;;;;;;;1.60;99.90;;;;;;5117767;28;20372;-89
2021/01/07 01:37:13;;;;;;;;;;;1.60;99.90;;;;;;5110367;28;20372;-89
2021/01/07 01:39:45;;;;;;;;;;;1.60;99.90;;;;;;5109977;28;19915;-88
2021/01/07 01:42:14;;;;;;;;;;;1.60;99.90;;;;;;5116695;28;19908;-88
2021/01/07 01:44:47;;;;;;;;;;;1.70;99.90;;;;;;5116446;28;19911;-88
2021/01/07 01:47:22;;;;;;;;;;;1.70;99.90;;;;;;5116075;28;19912;-88
2021/01/07 01:49:58;;;;;;;;;;;1.70;99.90;;;;;;5116215;28;19915;-89
2021/01/07 01:52:29;;;;;;;;;;;1.70;99.90;;;;;;5109792;28;19945;-89
2021/01/07 01:55:00;;;;;;;;;;;1.60;99.90;;;;;;5113840;28;19920;-88
2021/01/07 01:57:30;;;;;;;;;;;1.60;99.90;;;;;;5104814;28;20052;-88
2021/01/07 02:00:07;;;;;;;;;;;1.60;99.90;;;;;;5112831;28;19919;-88
2021/01/07 02:02:35;;;;;;;;;;;1.60;99.90;;;;;;5115929;28;20299;-89
2021/01/07 02:05:08;;;;;;;;;;;1.60;99.90;;;;;;5116338;28;19908;-89
2021/01/07 02:07:45;;;;;;;;;;;1.60;99.90;;;;;;5117811;28;19908;-89
2021/01/07 02:10:30;;;;;;;;;;;1.70;99.90;;;;;;5116551;28;19908;-88
2021/01/07 02:12:58;;;;;;;;;;;1.70;99.90;;;;;;5113863;28;20395;-88
2021/01/07 02:15:24;;;;;;;;;;;1.70;99.90;;;;;;4999366;28;19924;-89
2021/01/07 02:17:58;;;;;;;;;;;1.70;99.90;;;;;;5011619;28;20051;-88
2021/01/07 02:20:32;;;;;;;;;;;1.70;99.90;;;;;;5014655;28;19916;-88
2021/01/07 02:23:03;;;;;;;;;;;1.80;99.90;;;;;;5010957;28;19910;-88
2021/01/07 02:25:34;;;;;;;;;;;1.80;99.90;;;;;;5013233;28;19910;-88
2021/01/07 02:28:09;;;;;;;;;;;1.80;99.90;;;;;;5032039;28;20394;-88
2021/01/07 02:30:40;;;;;;;;;;;1.80;99.90;;;;;;5032563;28;19920;-88
2021/01/07 02:33:19;;;;;;;;;;;1.80;99.90;;;;;;5030448;28;19909;-89
2021/01/07 02:35:53;;;;;;;;;;;1.80;99.90;;;;;;5033795;28;19917;-88
2021/01/07 02:38:25;;;;;;;;;;;1.80;99.90;;;;;;5034124;28;19909;-88
2021/01/07 02:41:11;;;;;;;;;;;1.90;99.90;;;;;;5030131;28;19933;-88
2021/01/07 02:43:46;;;;;;;;;;;1.90;99.90;;;;;;5033027;28;19909;-88
2021/01/07 02:46:18;;;;;;;;;;;1.90;99.90;;;;;;5080023;27;20364;-89
2021/01/07 02:48:52;;;;;;;;;;;1.90;99.90;;;;;;5090628;28;19915;-89
2021/01/07 02:51:27;;;;;;;;;;;1.90;99.90;;;;;;5074270;28;19908;-88
2021/01/07 02:54:00;;;;;;;;;;;1.90;99.90;;;;;;5072642;28;19916;-88
2021/01/07 02:56:29;;;;;;;;;;;1.90;99.90;;;;;;5076868;28;20257;-89
2021/01/07 02:59:11;;;;;;;;;;;1.90;99.90;;;;;;5091225;28;19923;-88
2021/01/07 03:01:44;;;;;;;;;;;1.90;99.90;;;;;;5073081;28;19909;-89
2021/01/07 03:04:11;;;;;;;;;;;1.90;99.90;;;;;;5076724;28;19946;-89
2021/01/07 03:06:49;;;;;;;;;;;1.90;99.90;;;;;;5093351;28;19912;-89
2021/01/07 03:09:28;;;;;;;;;;;1.90;99.90;;;;;;5076210;28;19908;-88
2021/01/07 03:11:56;;;;;;;;;;;1.90;99.90;;;;;;5074674;28;20364;-88
2021/01/07 03:14:27;;;;;;;;;;;1.90;99.90;;;;;;5088812;28;19967;-88
2021/01/07 03:17:04;;;;;;;;;;;1.90;99.90;;;;;;5075594;28;19912;-89
2021/01/07 03:19:35;;;;;;;;;;;1.90;99.90;;;;;;5090422;27;20348;-88
2021/01/07 03:22:09;;;;;;;;;;;1.90;99.90;;;;;;5118042;27;19908;-89
2021/01/07 03:24:37;;;;;;;;;;;1.90;99.90;;;;;;5136016;27;20315;-88
2021/01/07 03:27:06;;;;;;;;;;;1.90;99.90;;;;;;5106723;28;19930;-88
2021/01/07 03:29:39;;;;;;;;;;;1.90;99.90;;;;;;5114161;28;19912;-89
2021/01/07 03:32:08;;;;;;;;;;;1.90;99.90;;;;;;5112250;28;20348;-89
2021/01/07 03:34:38;;;;;;;;;;;1.90;99.90;;;;;;5114772;28;19959;-89
2021/01/07 03:37:08;;;;;;;;;;;1.90;99.90;;;;;;5115606;28;19915;-88
2021/01/07 03:39:42;;;;;;;;;;;1.90;99.90;;;;;;5108752;28;20470;-88
2021/01/07 03:42:21;;;;;;;;;;;1.90;99.90;;;;;;5109120;28;19935;-88
2021/01/07 03:44:53;;;;;;;;;;;1.90;99.90;;;;;;5114398;28;19908;-88
2021/01/07 03:47:24;;;;;;;;;;;1.90;99.90;;;;;;5106458;28;19908;-88
2021/01/07 03:49:53;;;;;;;;;;;1.90;99.90;;;;;;5107825;28;20290;-88
2021/01/07 03:52:21;;;;;;;;;;;1.90;99.90;;;;;;5117292;28;19939;-88
2021/01/07 03:54:51;;;;;;;;;;;1.90;99.90;;;;;;5116034;28;19920;-88
2021/01/07 03:57:30;;;;;;;;;;;;;;;;;;;;;
2021/01/07 04:00:06;;;;;;;;;;;1.90;99.90;;;;;;5114900;28;19907;-89
2021/01/07 04:02:37;;;;;;;;;;;1.90;99.90;;;;;;5115322;28;19907;-88
2021/01/07 04:05:19;;;;;;;;;;;;;;;;;;;;;
2021/01/07 04:07:57;;;;;;;;;;;1.90;99.90;;;;;;5115461;28;19912;-88
2021/01/07 04:10:25;;;;;;;;;;;1.90;99.90;;;;;;5113407;28;19916;-88
2021/01/07 04:12:57;;;;;;;;;;;2.00;99.90;;;;;;5109813;28;19912;-89
2021/01/07 04:15:28;;;;;;;;;;;1.90;99.90;;;;;;5113293;28;20018;-88
2021/01/07 04:18:02;;;;;;;;;;;1.90;99.90;;;;;;5114968;28;19908;-88
2021/01/07 04:20:31;;;;;;;;;;;1.90;99.90;;;;;;5108849;28;20010;-89
2021/01/07 04:23:02;;;;;;;;;;;1.90;99.90;;;;;;5113934;28;19908;-90
2021/01/07 04:25:32;;;;;;;;;;;1.90;99.90;;;;;;5110659;28;19908;-90
2021/01/07 04:28:17;;;;;;;;;;;1.90;99.90;;;;;;5131451;28;19927;-90
2021/01/07 04:31:02;;;;;;;;;;;1.90;99.90;;;;;;5133890;28;19935;-89
2021/01/07 04:33:30;;;;;;;;;;;1.90;99.90;;;;;;5015403;28;19987;-90
2021/01/07 04:35:58;;;;;;;;;;;1.90;99.90;;;;;;5028101;28;19909;-89
2021/01/07 04:38:32;;;;;;;;;;;2.00;99.90;;;;;;5028566;28;19963;-90
2021/01/07 04:41:15;;;;;;;;;;;2.00;99.90;;;;;;5012815;28;19964;-90
2021/01/07 04:43:48;;;;;;;;;;;1.90;99.90;;;;;;5015058;28;19913;-90
2021/01/07 04:46:21;;;;;;;;;;;1.90;99.90;;;;;;5015834;28;19976;-89
2021/01/07 04:49:00;;;;;;;;;;;1.90;99.90;;;;;;5015000;28;19909;-90
2021/01/07 04:51:34;;;;;;;;;;;1.90;99.90;;;;;;5015765;28;19917;-90
2021/01/07 04:54:07;;;;;;;;;;;1.80;99.90;;;;;;5015534;28;20263;-90
2021/01/07 04:56:42;;;;;;;;;;;1.80;99.90;;;;;;5016010;28;19921;-90
2021/01/07 04:59:10;;;;;;;;;;;1.80;99.90;;;;;;5015245;28;19910;-90
2021/01/07 05:01:44;;;;;;;;;;;1.80;99.90;;;;;;5015941;28;20332;-90
2021/01/07 05:04:17;;;;;;;;;;;1.80;99.90;;;;;;5039309;28;19908;-89
2021/01/07 05:06:52;;;;;;;;;;;1.80;99.90;;;;;;5132350;27;19916;-90
2021/01/07 05:09:24;;;;;;;;;;;1.80;99.90;;;;;;5120671;27;19944;-90
2021/01/07 05:12:06;;;;;;;;;;;1.80;99.90;;;;;;5115128;27;19907;-90
2021/01/07 05:14:47;;;;;;;;;;;1.80;99.90;;;;;;5117784;27;19915;-90
2021/01/07 05:17:13;;;;;;;;;;;1.80;99.90;;;;;;5120966;27;20383;-89
2021/01/07 05:19:41;;;;;;;;;;;1.80;99.90;;;;;;5114278;27;19908;-90
2021/01/07 05:22:12;;;;;;;;;;;1.80;99.90;;;;;;5119750;27;19914;-90
2021/01/07 05:24:44;;;;;;;;;;;1.80;99.90;;;;;;5119718;27;19951;-90
2021/01/07 05:27:15;;;;;;;;;;;1.90;99.90;;;;;;5116714;28;19920;-90
2021/01/07 05:29:41;;;;;;;;;;;1.80;99.90;;;;;;5113718;28;19950;-90
2021/01/07 05:32:11;;;;;;;;;;;1.90;99.90;;;;;;5117950;28;19968;-90
2021/01/07 05:35:09;;;;;;;;;;;1.90;99.90;;;;;;5119147;28;19946;-90
2021/01/07 05:38:03;;;;;;;;;;;1.90;99.90;;;;;;5116190;28;20268;-90
2021/01/07 05:40:42;;;;;;;;;;;1.90;99.90;;;;;;5115741;28;19934;-90
2021/01/07 05:43:16;;;;;;;;;;;1.90;99.90;;;;;;5115620;28;19912;-90
2021/01/07 05:45:44;;;;;;;;;;;1.90;99.90;;;;;;5109534;28;19915;-90
2021/01/07 05:48:13;;;;;;;;;;;1.90;99.90;;;;;;5107964;28;19991;-90
2021/01/07 05:50:47;;;;;;;;;;;2.00;99.90;;;;;;5116476;28;19908;-90
2021/01/07 05:53:21;;;;;;;;;;;2.00;99.90;;;;;;5113851;28;20384;-90
2021/01/07 05:56:03;;;;;;;;;;;2.00;99.90;;;;;;5117077;28;19940;-91
2021/01/07 05:58:40;;;;;;;;;;;2.00;99.90;;;;;;5116937;28;19908;-91
2021/01/07 06:01:15;;;;;;;;;;;2.00;99.90;;;;;;5117024;28;19955;-90
2021/01/07 06:03:47;;;;;;;;;;;2.00;99.90;;;;;;5116224;28;19915;-90
2021/01/07 06:06:24;;;;;;;;;;;2.00;99.90;;;;;;5115671;28;19923;-90
2021/01/07 06:08:59;;;;;;;;;;;2.00;99.90;;;;;;5130255;27;19914;-90
2021/01/07 06:11:29;;;;;;;;;;;2.10;99.90;;;;;;5115222;28;19916;-90
2021/01/07 06:13:57;;;;;;;;;;;2.10;99.90;;;;;;5115677;28;20010;-90
2021/01/07 06:16:24;;;;;;;;;;;2.10;99.90;;;;;;5119734;27;19912;-89
2021/01/07 06:18:55;;;;;;;;;;;2.10;99.90;;;;;;5124100;27;19924;-89
2021/01/07 06:21:27;;;;;;;;;;;2.00;99.90;;;;;;5116232;28;19980;-90
2021/01/07 06:23:58;;;;;;;;;;;2.10;99.90;;;;;;5116231;28;19911;-88
2021/01/07 06:26:30;;;;;;;;;;;2.10;99.90;;;;;;5033916;28;20008;-90
2021/01/07 06:29:19;;;;;;;;;;;2.10;99.90;;;;;;5050832;28;19921;-90
2021/01/07 06:31:58;;;;;;;;;;;2.10;99.90;;;;;;5052742;28;19920;-90
2021/01/07 06:34:37;;;;;;;;;;;2.10;99.90;;;;;;5054167;28;20000;-90
2021/01/07 06:37:05;;;;;;;;;;;2.10;99.90;;;;;;5054225;28;19913;-89
2021/01/07 06:39:44;;;;;;;;;;;2.10;99.90;;;;;;5048313;28;19983;-88
2021/01/07 06:42:17;;;;;;;;;;;2.10;99.90;;;;;;5054110;28;20476;-88
2021/01/07 06:44:47;;;;;;;;;;;2.10;99.90;;;;;;5056670;28;19912;-89
2021/01/07 06:47:22;;;;;;;;;;;2.10;99.90;;;;;;5036148;28;19913;-90
2021/01/07 06:49:54;;;;;;;;;;;2.10;99.90;;;;;;5054680;28;20304;-88
2021/01/07 06:52:25;;;;;;;;;;;2.10;99.90;;;;;;5056540;28;19940;-89
2021/01/07 06:55:00;;;;;;;;;;;2.10;99.90;;;;;;5073250;28;19917;-89
2021/01/07 06:57:34;;;;;;;;;;;2.10;99.90;;;;;;5087919;27;19934;-89
2021/01/07 07:00:14;;;;;;;;;;;2.20;99.90;;;;;;5118197;27;19995;-89
2021/01/07 07:03:02;;;;;;;;;;;2.10;99.90;;;;;;5117932;27;19907;-89
2021/01/07 07:05:41;;;;;;;;;;;2.20;99.90;;;;;;5120946;27;19953;-90
2021/01/07 07:08:13;;;;;;;;;;;2.20;99.90;;;;;;5113440;27;19912;-89
2021/01/07 07:10:45;;;;;;;;;;;2.20;99.90;;;;;;5108696;28;19911;-89
2021/01/07 07:13:20;;;;;;;;;;;2.10;99.90;;;;;;5098864;28;19912;-90
2021/01/07 07:15:50;;;;;;;;;;;2.20;99.90;;;;;;5099980;28;19915;-89
2021/01/07 07:18:36;;;;;;;;;;;2.20;99.90;;;;;;5096133;28;19912;-90
2021/01/07 07:21:14;;;;;;;;;;;2.20;99.90;;;;;;5097215;28;19961;-89
2021/01/07 07:23:43;;;;;;;;;;;2.20;99.90;;;;;;5097592;28;19908;-88
2021/01/07 07:26:18;;;;;;;;;;;2.20;99.90;;;;;;5097486;28;19908;-89
2021/01/07 07:28:47;;;;;;;;;;;2.20;99.90;;;;;;5110863;28;19924;-88
2021/01/07 07:31:15;;;;;;;;;;;2.20;99.90;;;;;;5113788;28;19996;-88
2021/01/07 07:33:44;;;;;;;;;;;2.20;99.90;;;;;;5108671;28;19908;-89
2021/01/07 07:36:14;;;;;;;;;;;2.20;99.90;;;;;;5122250;27;19947;-89
2021/01/07 07:38:46;;;;;;;;;;;2.20;99.90;;;;;;5128435;27;20368;-89
2021/01/07 07:41:12;;;;;;;;;;;2.20;99.90;;;;;;5114626;28;19915;-89
2021/01/07 07:44:01;;;;;;;;;;;2.20;99.90;;;;;;5113671;28;20015;-89
2021/01/07 07:46:39;;;;;;;;;;;2.20;99.90;;;;;;5112372;28;19912;-90
2021/01/07 07:49:10;;;;;;;;;;;2.20;99.90;;;;;;5117074;28;20261;-89
2021/01/07 07:51:40;;;;;;;;;;;2.20;99.90;;;;;;5135278;28;19941;-90
2021/01/07 07:54:17;;;;;;;;;;;2.20;99.90;;;;;;5134925;28;20027;-90
2021/01/07 07:56:42;;;;;;;;;;;2.20;99.90;;;;;;5131258;28;19911;-90
2021/01/07 07:59:27;;;;;;;;;;;2.20;99.90;;;;;;5121544;28;19957;-88
2021/01/07 08:01:55;;;;;;;;;;;2.30;99.90;;;;;;5114031;28;19939;-89
2021/01/07 08:04:26;;;;;;;;;;;2.30;99.90;;;;;;5131787;28;19908;-88
2021/01/07 08:06:54;;;;;;;;;;;2.30;99.90;;;;;;5131042;28;19965;-88
2021/01/07 08:09:26;;;;;;;;;;;2.30;99.90;;;;;;5134724;28;20253;-90
2021/01/07 08:11:55;;;;;;;;;;;2.30;99.90;;;;;;5130421;28;19954;-89
2021/01/07 08:14:25;;;;;;;;;;;2.30;99.90;;;;;;5134016;28;19916;-90
2021/01/07 08:17:03;;;;;;;;;;;2.30;99.90;;;;;;5123308;27;20363;-89
2021/01/07 08:19:43;;;;;;;;;;;2.30;99.90;;;;;;5115099;27;19911;-89
2021/01/07 08:22:21;;;;;;;;;;;2.40;99.90;;;;;;5115028;28;19962;-89
2021/01/07 08:24:56;;;;;;;;;;;2.40;99.90;;;;;;5115714;28;19916;-90
2021/01/07 08:27:25;;;;;;;;;;;2.40;99.90;;;;;;5099807;28;20006;-89
2021/01/07 08:30:01;;;;;;;;;;;2.40;99.90;;;;;;5119136;28;19908;-89
2021/01/07 08:32:43;;;;;;;;;;;2.40;99.90;;;;;;5116406;28;19908;-89
2021/01/07 08:35:14;;;;;;;;;;;2.40;99.90;;;;;;5111846;28;19927;-88
2021/01/07 08:37:44;;;;;;;;;;;2.50;99.90;;;;;;5117245;28;20276;-91
2021/01/07 08:40:13;;;;;;;;;;;2.50;99.90;;;;;;5039436;28;20008;-90
2021/01/07 08:42:45;;;;;;;;;;;2.50;99.90;;;;;;5035412;28;20041;-90
2021/01/07 08:45:29;;;;;;;;;;;2.50;99.90;;;;;;5064212;28;19928;-90
2021/01/07 08:48:08;;;;;;;;;;;2.60;99.90;;;;;;5066137;28;20008;-90
2021/01/07 08:50:45;;;;;;;;;;;2.60;99.90;;;;;;5019998;28;19975;-89
2021/01/07 08:53:22;;;;;;;;;;;2.60;99.90;;;;;;5036452;28;19909;-90
2021/01/07 08:55:55;;;;;;;;;;;2.60;99.90;;;;;;5042725;28;19939;-89
2021/01/07 08:58:31;;;;;;;;;;;2.60;99.90;;;;;;5036550;28;20401;-90
2021/01/07 09:01:05;;;;;;;;;;;2.60;99.90;;;;;;5035095;28;19945;-89
2021/01/07 09:03:50;;;;;;;;;;;2.60;99.90;;;;;;5034653;28;20362;-90
2021/01/07 09:06:21;;;;;;;;;;;2.60;99.90;;;;;;5017280;28;19975;-91
2021/01/07 09:08:49;;;;;;;;;;;2.70;99.90;;;;;;5032430;28;20000;-90
2021/01/07 09:11:26;;;;;;;;;;;2.70;99.90;;;;;;5049955;28;19908;-91
2021/01/07 09:14:06;;;;;;;;;;;2.70;99.90;;;;;;5075094;28;19916;-91
2021/01/07 09:16:43;;;;;;;;;;;2.80;99.90;;;;;;5074366;28;20007;-89
2021/01/07 09:19:14;;;;;;;;;;;2.80;99.90;;;;;;5075380;28;19970;-89
2021/01/07 09:21:46;;;;;;;;;;;2.90;99.90;;;;;;5097059;27;20320;-89
2021/01/07 09:24:17;;;;;;;;;;;2.90;99.90;;;;;;5118696;27;19994;-89
2021/01/07 09:26:55;;;;;;;;;;;2.90;99.90;;;;;;5113250;28;19916;-89
2021/01/07 09:29:26;;;;;;;;;;;2.90;99.90;;;;;;5116216;27;19920;-90
2021/01/07 09:31:53;;;;;;;;;;;2.90;99.90;;;;;;5119381;27;19961;-88
2021/01/07 09:34:27;;;;;;;;;;;2.90;99.90;;;;;;5103608;27;19955;-88
2021/01/07 09:37:14;;;;;;;;;;;2.90;99.90;;;;;;5120155;27;19975;-88
2021/01/07 09:39:44;;;;;;;;;;;2.90;99.90;;;;;;5128697;27;19912;-88
2021/01/07 09:42:22;;;;;;;;;;;2.90;99.90;;;;;;5158910;27;20305;-88
2021/01/07 09:44:57;;;;;;;;;;;3.00;99.90;;;;;;5139489;27;20352;-88
2021/01/07 09:47:24;;;;;;;;;;;3.00;99.90;;;;;;5139819;27;19911;-88
2021/01/07 09:50:13;;;;;;;;;;;3.10;99.90;;;;;;5138658;27;19907;-89
2021/01/07 09:52:45;;;;;;;;;;;3.10;99.90;;;;;;5157943;27;19907;-88
2021/01/07 09:55:16;;;;;;;;;;;3.10;99.90;;;;;;5096822;27;19923;-88
2021/01/07 09:57:51;;;;;;;;;;;3.10;99.90;;;;;;5134558;27;20327;-88
2021/01/07 10:00:36;;;;;;;;;;;3.20;99.90;;;;;;5138377;27;19911;-88
2021/01/07 10:03:05;;;;;;;;;;;3.20;99.90;;;;;;5134075;27;19931;-87
2021/01/07 10:05:56;;;;;;;;;;;3.30;99.90;;;;;;5157746;27;20275;-88
2021/01/07 10:08:28;;;;;;;;;;;3.30;99.90;;;;;;5115142;28;20391;-88
2021/01/07 10:10:56;;;;;;;;;;;3.30;99.90;;;;;;5097498;28;20110;-88
2021/01/07 10:13:25;;;;;;;;;;;3.40;99.90;;;;;;5092741;28;19907;-88
2021/01/07 10:15:53;;;;;;;;;;;3.40;99.90;;;;;;5109844;28;19920;-88
2021/01/07 10:18:34;;;;;;;;;;;3.40;99.90;;;;;;5097261;28;20391;-88
2021/01/07 10:21:03;;;;;;;;;;;3.50;99.90;;;;;;5097373;28;19907;-89
2021/01/07 10:23:35;;;;;;;;;;;3.50;99.90;;;;;;5092812;28;19916;-88
2021/01/07 10:26:01;;;;;;;;;;;3.60;99.90;;;;;;5076588;28;19912;-88
2021/01/07 10:28:39;;;;;;;;;;;3.70;99.90;;;;;;5090398;28;19974;-88
2021/01/07 10:31:10;;;;;;;;;;;3.80;99.90;;;;;;5076192;28;19908;-88
2021/01/07 10:33:47;;;;;;;;;;;3.80;99.90;;;;;;5060385;28;19912;-89
2021/01/07 10:36:42;;;;;;;;;;;3.80;99.90;;;;;;5079886;28;19919;-88
2021/01/07 10:39:16;;;;;;;;;;;3.80;99.90;;;;;;5046045;28;19916;-88
2021/01/07 10:41:44;;;;;;;;;;;3.90;99.90;;;;;;5072495;28;19971;-90
2021/01/07 10:44:16;;;;;;;;;;;3.90;99.90;;;;;;5073785;28;19954;-89
2021/01/07 10:46:45;;;;;;;;;;;3.90;99.90;;;;;;5071068;28;19913;-89
2021/01/07 10:49:18;;;;;;;;;;;3.90;99.90;;;;;;5083296;28;19915;-87
2021/01/07 10:51:55;;;;;;;;;;;4.00;99.90;;;;;;5076469;28;19912;-88
2021/01/07 10:54:39;;;;;;;;;;;4.00;99.90;;;;;;5093482;28;20434;-87
2021/01/07 10:57:07;;;;;;;;;;;4.00;99.90;;;;;;5077017;28;19919;-89
2021/01/07 10:59:51;;;;;;;;;;;4.00;99.90;;;;;;5093637;28;19913;-88
2021/01/07 11:02:40;;;;;;;;;;;4.00;99.90;;;;;;5074718;28;20014;-88
2021/01/07 11:05:11;;;;;;;;;;;4.00;99.90;;;;;;5076019;28;19954;-89
2021/01/07 11:07:55;;;;;;;;;;;3.90;99.90;;;;;;5076133;28;19959;-89
2021/01/07 11:10:28;;;;;;;;;;;3.90;99.90;;;;;;5102161;27;19907;-89
2021/01/07 11:13:07;;;;;;;;;;;3.90;99.90;;;;;;5117993;27;19957;-90
2021/01/07 11:15:43;;;;;;;;;;;4.00;99.90;;;;;;5136413;27;20010;-89
2021/01/07 11:18:14;;;;;;;;;;;4.00;99.90;;;;;;5114644;27;19919;-90
2021/01/07 11:20:48;;;;;;;;;;;4.00;99.90;;;;;;5119044;27;19907;-89
2021/01/07 11:23:16;;;;;;;;;;;4.00;99.90;;;;;;5090780;28;19955;-87
2021/01/07 11:25:42;;;;;;;;;;;4.10;99.90;;;;;;5075531;28;20281;-88
2021/01/07 11:28:08;;;;;;;;;;;4.00;99.90;;;;;;5071022;28;20011;-87
2021/01/07 11:30:59;;;;;;;;;;;4.10;99.90;;;;;;5075883;28;20357;-87
2021/01/07 11:33:25;;;;;;;;;;;4.00;99.90;;;;;;5092197;28;19964;-87
2021/01/07 11:35:57;;;;;;;;;;;4.00;99.90;;;;;;5092036;28;20026;-87
2021/01/07 11:38:30;;;;;;;;;;;4.00;99.90;;;;;;5092827;28;19912;-88
2021/01/07 11:41:14;;;;;;;;;;;4.00;99.90;;;;;;5075133;28;19908;-88
2021/01/07 11:43:54;;;;;;;;;;;4.10;99.90;;;;;;5092006;28;19908;-87
2021/01/07 11:46:20;;;;;;;;;;;4.10;99.90;;;;;;5092207;28;19947;-88
2021/01/07 11:49:01;;;;;;;;;;;4.20;99.90;;;;;;5090681;28;19916;-88
2021/01/07 11:51:33;;;;;;;;;;;4.20;99.90;;;;;;5072738;28;19931;-86
2021/01/07 11:54:14;;;;;;;;;;;4.20;99.90;;;;;;5091879;27;19980;-86
2021/01/07 11:56:48;;;;;;;;;;;4.20;99.90;;;;;;5127345;27;20647;-87
2021/01/07 11:59:23;;;;;;;;;;;4.20;99.90;;;;;;5125166;27;19908;-87
2021/01/07 12:01:52;;;;;;;;;;;4.30;99.90;;;;;;5122123;27;20055;-87
2021/01/07 12:04:36;;;;;;;;;;;4.30;99.90;;;;;;5130664;27;19918;-87
2021/01/07 12:07:09;;;;;;;;;;;4.30;99.90;;;;;;5139183;27;19998;-87
2021/01/07 12:09:44;;;;;;;;;;;4.20;99.90;;;;;;5159949;27;20002;-87
2021/01/07 12:12:24;;;;;;;;;;;4.30;99.90;;;;;;5140459;27;19907;-86
2021/01/07 12:14:55;;;;;;;;;;;4.30;99.90;;;;;;5141165;27;19929;-87
2021/01/07 12:17:23;;;;;;;;;;;4.20;99.90;;;;;;5141806;27;19921;-87
2021/01/07 12:20:00;;;;;;;;;;;4.20;99.90;;;;;;5141630;27;19960;-87
2021/01/07 12:22:51;;;;;;;;;;;4.20;99.90;;;;;;5141458;27;19911;-87
2021/01/07 12:25:19;;;;;;;;;;;4.10;99.90;;;;;;5155205;27;19911;-87
2021/01/07 12:27:51;;;;;;;;;;;4.00;99.90;;;;;;5156681;27;19938;-87
2021/01/07 12:30:21;;;;;;;;;;;4.00;99.90;;;;;;5122088;27;20409;-87
2021/01/07 12:33:04;;;;;;;;;;;4.00;99.90;;;;;;5130286;27;20351;-87
2021/01/07 12:35:37;;;;;;;;;;;4.00;99.90;;;;;;5161973;27;20016;-87
2021/01/07 12:38:12;;;;;;;;;;;4.00;99.90;;;;;;5138698;27;20421;-86
2021/01/07 12:41:03;;;;;;;;;;;4.10;99.90;;;;;;5140772;27;19908;-87
2021/01/07 12:43:34;;;;;;;;;;;4.10;99.90;;;;;;5124621;27;19909;-85
2021/01/07 12:46:12;;;;;;;;;;;4.10;99.90;;;;;;5123966;27;19908;-86
2021/01/07 12:48:42;;;;;;;;;;;4.20;99.90;;;;;;5127116;27;19922;-86
2021/01/07 12:51:26;;;;;;;;;;;4.10;99.90;;;;;;5141931;27;19907;-88
2021/01/07 12:54:04;;;;;;;;;;;4.20;99.90;;;;;;5159567;27;19914;-87
2021/01/07 12:56:45;;;;;;;;;;;4.20;99.90;;;;;;5159002;27;19914;-88
2021/01/07 12:59:25;;;;;;;;;;;4.30;99.90;;;;;;5098394;28;19912;-88
2021/01/07 13:02:14;;;;;;;;;;;4.30;99.90;;;;;;5097929;28;19911;-87
2021/01/07 13:05:00;;;;;;;;;;;4.30;99.90;;;;;;5089023;28;19929;-88
2021/01/07 13:07:33;;;;;;;;;;;4.30;99.90;;;;;;5098909;28;19911;-88
2021/01/07 13:10:14;;;;;;;;;;;4.30;99.90;;;;;;5093398;28;19995;-88
2021/01/07 13:12:44;;;;;;;;;;;4.40;99.90;;;;;;5101220;28;19937;-88
2021/01/07 13:15:14;;;;;;;;;;;4.40;99.90;;;;;;5099810;28;19916;-87
2021/01/07 13:18:06;;;;;;;;;;;4.40;99.90;;;;;;5113903;28;20004;-87
2021/01/07 13:20:42;;;;;;;;;;;4.40;99.90;;;;;;5110310;28;19951;-86
2021/01/07 13:23:30;;;;;;;;;;;4.40;99.90;;;;;;5094863;28;20342;-86
2021/01/07 13:25:59;;;;;;;;;;;4.40;99.90;;;;;;5048623;28;19923;-86
2021/01/07 13:28:33;;;;;;;;;;;4.40;99.90;;;;;;5071948;28;19920;-88
2021/01/07 13:31:03;;;;;;;;;;;4.30;99.90;;;;;;5127211;27;19907;-85
2021/01/07 13:33:44;;;;;;;;;;;4.30;99.90;;;;;;5085074;27;19915;-89
2021/01/07 13:36:32;;;;;;;;;;;4.30;99.90;;;;;;5143320;27;19964;-87
2021/01/07 13:39:11;;;;;;;;;;;4.30;99.90;;;;;;5120033;27;19912;-86
2021/01/07 13:42:03;;;;;;;;;;;4.40;99.90;;;;;;5143191;27;20386;-86
2021/01/07 13:44:32;;;;;;;;;;;4.30;99.90;;;;;;5139393;27;19993;-87
2021/01/07 13:47:04;;;;;;;;;;;4.30;99.90;;;;;;5139348;27;19914;-87
2021/01/07 13:49:36;;;;;;;;;;;4.30;99.90;;;;;;5134438;27;19913;-87
2021/01/07 13:52:38;;;;;;;;;;;4.30;99.90;;;;;;5139092;27;20368;-86
2021/01/07 13:55:34;;;;;;;;;;;4.30;99.90;;;;;;5134648;27;19926;-87
2021/01/07 13:58:03;;;;;;;;;;;4.30;99.90;;;;;;5128438;27;19907;-87
2021/01/07 14:00:31;;;;;;;;;;;4.30;99.90;;;;;;5144384;27;19907;-86
2021/01/07 14:03:21;;;;;;;;;;;4.30;99.90;;;;;;5136040;27;20482;-87
2021/01/07 14:06:02;;;;;;;;;;;4.30;99.90;;;;;;5132698;27;20320;-86
2021/01/07 14:08:39;;;;;;;;;;;4.30;99.90;;;;;;5157088;27;19907;-88
2021/01/07 14:11:25;;;;;;;;;;;4.30;99.90;;;;;;5139291;27;19907;-87
2021/01/07 14:14:00;;;;;;;;;;;4.30;99.90;;;;;;5156931;27;19967;-87
2021/01/07 14:16:48;;;;;;;;;;;4.30;99.90;;;;;;5157992;27;19965;-87
2021/01/07 14:19:19;;;;;;;;;;;4.30;99.90;;;;;;5137716;27;20370;-86
2021/01/07 14:21:46;;;;;;;;;;;4.30;99.90;;;;;;5156948;27;19911;-85
2021/01/07 14:24:14;;;;;;;;;;;4.30;99.90;;;;;;5124143;27;19914;-85
2021/01/07 14:26:46;;;;;;;;;;;4.30;99.90;;;;;;5126798;27;20014;-86
2021/01/07 14:29:19;;;;;;;;;;;4.30;99.90;;;;;;5142570;27;19919;-86
2021/01/07 14:31:58;;;;;;;;;;;4.20;99.90;;;;;;5133426;27;19915;-86
2021/01/07 14:34:40;;;;;;;;;;;4.20;99.90;;;;;;5118016;27;19965;-87
2021/01/07 14:37:08;;;;;;;;;;;4.20;99.90;;;;;;5118112;27;19915;-87
2021/01/07 14:39:39;;;;;;;;;;;4.10;99.90;;;;;;5115069;27;19912;-86
2021/01/07 14:42:12;;;;;;;;;;;4.10;99.90;;;;;;5135996;27;19973;-87
2021/01/07 14:44:49;;;;;;;;;;;4.10;99.90;;;;;;5117847;27;19907;-86
2021/01/07 14:47:23;;;;;;;;;;;4.10;99.90;;;;;;5117881;27;20382;-87
2021/01/07 14:50:02;;;;;;;;;;;4.10;99.90;;;;;;5117118;27;20338;-86
2021/01/07 14:52:42;;;;;;;;;;;4.10;99.90;;;;;;5116883;27;19915;-86
2021/01/07 14:55:14;;;;;;;;;;;4.10;99.90;;;;;;5116824;27;19962;-86
2021/01/07 14:57:51;;;;;;;;;;;4.10;99.90;;;;;;5117418;27;19907;-85
2021/01/07 15:00:36;;;;;;;;;;;4.10;99.90;;;;;;5135590;27;19908;-87
2021/01/07 15:03:21;;;;;;;;;;;4.10;99.90;;;;;;5116914;27;19914;-86
2021/01/07 15:06:09;;;;;;;;;;;4.10;99.90;;;;;;5116543;27;19940;-86
2021/01/07 15:08:42;;;;;;;;;;;4.10;99.90;;;;;;5101170;27;19907;-86
2021/01/07 15:11:19;;;;;;;;;;;4.10;99.90;;;;;;5134560;27;19958;-85
2021/01/07 15:13:56;;;;;;;;;;;4.10;99.90;;;;;;5135513;27;19907;-85